Time;durP1;ratioP1;P1;durP2;ratioP2;P2;SDS_P1;SDS_P2;PMS_P1;PMS_P2;Temp;Humidity;BMP_temperature;BMP_pressure;BME280_temperature;BME280_humidity;BME280_pressure;Samples;Min_cycle;Max_cycle;Signal;HPM_P1;HPM_P2
2022/10/10 00:01:06;;;;;;;14.05;7.05;;;;;;;;;;5025942;28;20052;-69
2022/10/10 00:03:35;;;;;;;14.50;6.35;;;;;;;;;;5018081;28;20049;-69
2022/10/10 00:06:02;;;;;;;10.85;5.78;;;;;;;;;;5020995;28;20128;-70
2022/10/10 00:08:28;;;;;;;13.32;5.45;;;;;;;;;;5024400;28;20068;-68
2022/10/10 00:10:54;;;;;;;16.25;5.63;;;;;;;;;;5015693;28;20095;-67
2022/10/10 00:13:20;;;;;;;15.73;5.55;;;;;;;;;;5027027;28;20045;-70
2022/10/10 00:15:47;;;;;;;13.60;5.30;;;;;;;;;;5026664;28;20144;-70
2022/10/10 00:18:12;;;;;;;12.30;4.72;;;;;;;;;;5029259;28;20088;-65
2022/10/10 00:20:38;;;;;;;14.48;4.72;;;;;;;;;;5029877;28;20045;-70
2022/10/10 00:23:04;;;;;;;10.93;4.63;;;;;;;;;;5022748;28;20095;-68
2022/10/10 00:25:30;;;;;;;14.55;4.60;;;;;;;;;;5026706;28;20465;-69
2022/10/10 00:28:00;;;;;;;11.98;4.30;;;;;;;;;;5020334;28;20121;-72
2022/10/10 00:30:26;;;;;;;7.97;4.22;;;;;;;;;;5028003;28;20049;-71
2022/10/10 00:32:51;;;;;;;10.80;4.60;;;;;;;;;;5027004;28;20042;-70
2022/10/10 00:35:17;;;;;;;13.75;4.97;;;;;;;;;;5021657;28;20037;-69
2022/10/10 00:37:43;;;;;;;12.70;4.20;;;;;;;;;;5028003;28;20406;-67
2022/10/10 00:40:10;;;;;;;11.70;4.28;;;;;;;;;;5028129;28;20045;-69
2022/10/10 00:42:36;;;;;;;11.75;4.10;;;;;;;;;;5024848;28;20052;-68
2022/10/10 00:45:24;;;;;;;13.77;5.13;;;;;;;;;;5027259;28;20049;-66
2022/10/10 00:47:54;;;;;;;12.93;3.92;;;;;;;;;;5021115;28;20797;-71
2022/10/10 00:50:22;;;;;;;10.90;3.92;;;;;;;;;;5020611;28;20045;-67
2022/10/10 00:52:48;;;;;;;12.00;4.45;;;;;;;;;;5023962;28;20049;-69
2022/10/10 00:55:15;;;;;;;11.82;4.40;;;;;;;;;;5023593;28;20502;-70
2022/10/10 00:57:41;;;;;;;9.07;4.10;;;;;;;;;;5025091;28;20050;-67
2022/10/10 01:00:09;;;;;;;10.82;4.32;;;;;;;;;;5026921;28;20427;-68
2022/10/10 01:02:34;;;;;;;7.10;3.80;;;;;;;;;;5029258;28;20053;-69
2022/10/10 01:05:00;;;;;;;10.07;4.25;;;;;;;;;;5027334;28;20404;-70
2022/10/10 01:07:30;;;;;;;10.88;4.13;;;;;;;;;;5024490;28;20168;-68
2022/10/10 01:10:01;;;;;;;6.65;3.90;;;;;;;;;;5014449;28;20096;-68
2022/10/10 01:12:45;;;;;;;10.48;3.75;;;;;;;;;;5025649;28;20037;-68
2022/10/10 01:15:22;;;;;;;12.02;4.45;;;;;;;;;;5027371;28;20534;-66
2022/10/10 01:17:52;;;;;;;9.18;3.60;;;;;;;;;;5030056;28;20041;-72
2022/10/10 01:20:39;;;;;;;11.65;3.90;;;;;;;;;;5030523;28;20511;-69
2022/10/10 01:23:37;;;;;;;8.48;3.33;;;;;;;;;;5020855;28;20053;-65
2022/10/10 01:26:40;;;;;;;10.52;3.40;;;;;;;;;;5020199;28;20045;-69
2022/10/10 01:29:29;;;;;;;12.65;3.90;;;;;;;;;;5025221;28;20091;-69
2022/10/10 01:32:02;;;;;;;10.32;3.78;;;;;;;;;;5020686;28;20045;-69
2022/10/10 01:34:54;;;;;;;13.65;3.95;;;;;;;;;;5023451;28;20484;-66
2022/10/10 01:37:47;;;;;;;7.28;3.67;;;;;;;;;;5030809;28;20050;-70
2022/10/10 01:40:40;;;;;;;10.48;4.00;;;;;;;;;;5016789;28;20057;-70
2022/10/10 01:43:07;;;;;;;10.98;3.83;;;;;;;;;;5021674;28;20072;-69
2022/10/10 01:45:33;;;;;;;9.98;3.70;;;;;;;;;;5027362;28;20346;-68
2022/10/10 01:48:03;;;;;;;9.18;3.80;;;;;;;;;;5027505;28;20065;-67
2022/10/10 01:50:38;;;;;;;10.35;3.80;;;;;;;;;;5027975;28;20502;-68
2022/10/10 01:53:25;;;;;;;10.75;3.42;;;;;;;;;;5023245;28;20060;-65
2022/10/10 01:55:57;;;;;;;9.60;3.40;;;;;;;;;;5028204;28;20109;-71
2022/10/10 01:58:30;;;;;;;12.35;4.35;;;;;;;;;;5024788;28;20049;-65
2022/10/10 02:01:10;;;;;;;11.35;4.18;;;;;;;;;;5016934;28;20049;-68
2022/10/10 02:03:42;;;;;;;9.50;4.03;;;;;;;;;;5022624;28;20124;-64
2022/10/10 02:06:29;;;;;;;9.85;4.03;;;;;;;;;;5024012;28;20041;-66
2022/10/10 02:09:06;;;;;;;9.07;3.75;;;;;;;;;;5025154;28;20099;-67
2022/10/10 02:11:36;;;;;;;7.63;4.00;;;;;;;;;;5027773;28;20046;-67
2022/10/10 02:14:13;;;;;;;11.05;4.03;;;;;;;;;;5028784;28;20033;-68
2022/10/10 02:16:41;;;;;;;9.38;3.95;;;;;;;;;;5016960;28;20061;-69
2022/10/10 02:19:09;;;;;;;9.75;4.50;;;;;;;;;;5026184;28;20057;-69
2022/10/10 02:21:36;;;;;;;11.13;4.28;;;;;;;;;;5025478;28;20073;-70
2022/10/10 02:24:05;;;;;;;11.48;4.30;;;;;;;;;;5022901;28;20042;-70
2022/10/10 02:26:32;;;;;;;11.82;4.20;;;;;;;;;;5023852;28;20052;-65
2022/10/10 02:29:16;;;;;;;9.90;4.30;;;;;;;;;;5024397;28;20045;-69
2022/10/10 02:31:57;;;;;;;11.68;4.22;;;;;;;;;;5020021;28;20049;-68
2022/10/10 02:34:28;;;;;;;9.73;3.72;;;;;;;;;;5019569;28;20403;-71
2022/10/10 02:37:00;;;;;;;20.65;4.15;;;;;;;;;;5025945;28;20545;-67
2022/10/10 02:39:31;;;;;;;9.93;4.28;;;;;;;;;;5028108;28;20056;-68
2022/10/10 02:41:57;;;;;;;9.43;4.28;;;;;;;;;;5025855;28;20045;-67
2022/10/10 02:44:24;;;;;;;10.05;4.15;;;;;;;;;;5016647;28;20452;-68
2022/10/10 02:46:50;;;;;;;10.40;4.28;;;;;;;;;;5027851;28;20049;-69
2022/10/10 02:49:23;;;;;;;10.48;3.97;;;;;;;;;;5023657;28;20049;-66
2022/10/10 02:51:49;;;;;;;9.85;3.92;;;;;;;;;;5027315;28;20049;-66
2022/10/10 02:54:15;;;;;;;11.60;4.32;;;;;;;;;;5026907;28;20124;-71
2022/10/10 02:56:41;;;;;;;13.55;4.35;;;;;;;;;;5024082;28;20132;-67
2022/10/10 02:59:07;;;;;;;7.40;3.80;;;;;;;;;;5025737;28;20038;-67
2022/10/10 03:01:32;;;;;;;11.88;4.18;;;;;;;;;;5023419;28;20041;-67
2022/10/10 03:03:58;;;;;;;11.38;3.90;;;;;;;;;;5026792;28;20080;-70
2022/10/10 03:06:24;;;;;;;7.20;4.38;;;;;;;;;;5027787;28;20290;-68
2022/10/10 03:08:50;;;;;;;7.72;4.47;;;;;;;;;;5019405;28;20483;-68
2022/10/10 03:11:16;;;;;;;12.10;4.97;;;;;;;;;;5027183;28;20463;-67
2022/10/10 03:13:42;;;;;;;9.57;3.90;;;;;;;;;;5027717;28;20053;-69
2022/10/10 03:16:07;;;;;;;9.95;4.38;;;;;;;;;;5028696;28;20551;-70
2022/10/10 03:18:33;;;;;;;9.00;3.95;;;;;;;;;;5029337;28;20045;-65
2022/10/10 03:20:59;;;;;;;10.27;4.10;;;;;;;;;;5028594;28;20042;-66
2022/10/10 03:23:25;;;;;;;8.77;4.32;;;;;;;;;;5021858;28;20067;-67
2022/10/10 03:25:51;;;;;;;11.20;4.90;;;;;;;;;;5026125;28;20073;-68
2022/10/10 03:28:17;;;;;;;8.55;4.07;;;;;;;;;;5026190;28;20072;-67
2022/10/10 03:30:43;;;;;;;10.30;4.03;;;;;;;;;;5026813;28;20053;-69
2022/10/10 03:33:09;;;;;;;14.68;4.10;;;;;;;;;;5028708;28;20051;-68
2022/10/10 03:35:36;;;;;;;10.60;4.18;;;;;;;;;;5030142;28;20145;-71
2022/10/10 03:38:02;;;;;;;12.73;4.20;;;;;;;;;;5029088;28;20133;-68
2022/10/10 03:40:29;;;;;;;13.05;4.10;;;;;;;;;;5023157;28;20676;-68
2022/10/10 03:42:55;;;;;;;12.20;4.13;;;;;;;;;;5027791;28;20120;-72
2022/10/10 03:45:21;;;;;;;8.27;4.22;;;;;;;;;;5027385;28;20048;-67
2022/10/10 03:47:47;;;;;;;12.85;4.78;;;;;;;;;;5025760;28;20049;-67
2022/10/10 03:50:13;;;;;;;10.73;4.30;;;;;;;;;;5028501;28;20061;-71
2022/10/10 03:52:39;;;;;;;13.43;4.63;;;;;;;;;;5027736;28;20144;-69
2022/10/10 03:55:05;;;;;;;9.68;3.85;;;;;;;;;;5028583;28;20138;-69
2022/10/10 03:57:31;;;;;;;9.02;4.20;;;;;;;;;;5020223;28;20065;-69
2022/10/10 03:59:57;;;;;;;13.57;4.15;;;;;;;;;;5022636;28;20052;-69
2022/10/10 04:02:22;;;;;;;9.70;3.97;;;;;;;;;;5020572;28;20053;-66
2022/10/10 04:04:48;;;;;;;11.48;4.20;;;;;;;;;;5023613;28;20066;-68
2022/10/10 04:07:14;;;;;;;11.10;4.20;;;;;;;;;;5024081;28;20053;-70
2022/10/10 04:09:40;;;;;;;10.27;4.95;;;;;;;;;;5023717;28;20643;-68
2022/10/10 04:12:06;;;;;;;8.95;3.92;;;;;;;;;;5022942;28;20409;-68
2022/10/10 04:14:32;;;;;;;12.38;4.00;;;;;;;;;;5020313;28;20049;-66
2022/10/10 04:16:58;;;;;;;7.93;4.68;;;;;;;;;;5023607;28;20684;-67
2022/10/10 04:19:24;;;;;;;12.93;3.95;;;;;;;;;;5021232;28;20063;-66
2022/10/10 04:21:49;;;;;;;10.52;4.55;;;;;;;;;;5016836;28;20045;-67
2022/10/10 04:24:15;;;;;;;8.52;4.00;;;;;;;;;;5014860;28;20065;-66
2022/10/10 04:26:41;;;;;;;9.25;4.15;;;;;;;;;;5024511;28;20041;-69
2022/10/10 04:29:07;;;;;;;10.95;4.28;;;;;;;;;;5024641;28;20046;-68
2022/10/10 04:31:33;;;;;;;7.05;4.30;;;;;;;;;;5021240;28;20829;-68
2022/10/10 04:33:59;;;;;;;15.88;4.75;;;;;;;;;;5024075;28;20168;-67
2022/10/10 04:36:26;;;;;;;10.40;4.40;;;;;;;;;;5031842;28;20097;-65
2022/10/10 04:38:52;;;;;;;10.05;3.97;;;;;;;;;;5025046;28;20101;-67
2022/10/10 04:41:17;;;;;;;9.63;4.38;;;;;;;;;;5032994;28;20145;-66
2022/10/10 04:43:43;;;;;;;11.15;4.18;;;;;;;;;;5031634;28;20065;-66
2022/10/10 04:46:09;;;;;;;16.00;4.80;;;;;;;;;;5032576;28;20506;-68
2022/10/10 04:48:36;;;;;;;10.60;4.82;;;;;;;;;;5025805;28;20069;-69
2022/10/10 04:51:02;;;;;;;12.82;4.40;;;;;;;;;;5029874;28;20037;-70
2022/10/10 04:53:28;;;;;;;14.82;5.10;;;;;;;;;;5030488;28;20080;-66
2022/10/10 04:55:54;;;;;;;15.38;4.75;;;;;;;;;;5021883;28;20048;-68
2022/10/10 04:58:20;;;;;;;12.80;4.25;;;;;;;;;;5030331;28;20049;-68
2022/10/10 05:00:51;;;;;;;9.77;4.35;;;;;;;;;;5028008;28;20090;-68
2022/10/10 05:03:16;;;;;;;13.50;4.25;;;;;;;;;;5029525;28;20045;-71
2022/10/10 05:05:42;;;;;;;14.63;4.32;;;;;;;;;;5023781;28;20148;-67
2022/10/10 05:08:08;;;;;;;13.70;4.85;;;;;;;;;;5029389;28;20052;-68
2022/10/10 05:10:37;;;;;;;10.63;5.00;;;;;;;;;;5029075;28;20054;-68
2022/10/10 05:13:09;;;;;;;10.80;4.30;;;;;;;;;;5029755;28;20051;-69
2022/10/10 05:15:36;;;;;;;12.00;4.38;;;;;;;;;;5030281;28;20042;-68
2022/10/10 05:18:02;;;;;;;12.23;4.60;;;;;;;;;;5029140;28;20057;-70
2022/10/10 05:20:29;;;;;;;12.32;4.35;;;;;;;;;;5033153;28;20041;-69
2022/10/10 05:22:56;;;;;;;8.77;4.57;;;;;;;;;;5025227;28;20461;-67
2022/10/10 05:25:22;;;;;;;11.80;4.50;;;;;;;;;;5028607;28;20434;-67
2022/10/10 05:27:48;;;;;;;16.88;4.43;;;;;;;;;;5026977;28;20079;-64
2022/10/10 05:30:13;;;;;;;17.67;5.28;;;;;;;;;;5025394;28;20197;-69
2022/10/10 05:32:40;;;;;;;16.80;4.57;;;;;;;;;;5026219;28;20077;-67
2022/10/10 05:35:06;;;;;;;22.27;5.35;;;;;;;;;;5030176;28;20048;-65
2022/10/10 05:37:33;;;;;;;15.38;4.43;;;;;;;;;;5025630;28;20057;-67
2022/10/10 05:39:58;;;;;;;11.18;4.72;;;;;;;;;;5013699;28;20096;-65
2022/10/10 05:42:24;;;;;;;10.27;4.55;;;;;;;;;;5028444;28;20148;-66
2022/10/10 05:44:50;;;;;;;17.35;5.32;;;;;;;;;;5028016;28;20045;-66
2022/10/10 05:47:16;;;;;;;13.50;4.63;;;;;;;;;;5019744;28;20102;-66
2022/10/10 05:49:42;;;;;;;9.90;5.35;;;;;;;;;;5030887;28;20403;-66
2022/10/10 05:52:08;;;;;;;12.63;5.45;;;;;;;;;;5021638;28;20049;-67
2022/10/10 05:54:34;;;;;;;14.20;5.80;;;;;;;;;;5030694;28;20110;-66
2022/10/10 05:57:01;;;;;;;15.05;6.30;;;;;;;;;;5030933;28;20044;-68
2022/10/10 05:59:29;;;;;;;18.00;5.95;;;;;;;;;;5028889;28;20057;-65
2022/10/10 06:01:56;;;;;;;14.88;6.20;;;;;;;;;;5028835;28;20049;-65
2022/10/10 06:04:22;;;;;;;14.25;6.75;;;;;;;;;;5026888;28;20049;-69
2022/10/10 06:06:49;;;;;;;16.13;5.97;;;;;;;;;;5024070;28;20053;-67
2022/10/10 06:09:15;;;;;;;15.80;6.30;;;;;;;;;;5025672;28;20054;-67
2022/10/10 06:11:41;;;;;;;19.67;6.47;;;;;;;;;;5024376;28;20400;-68
2022/10/10 06:14:08;;;;;;;16.45;6.13;;;;;;;;;;5029233;28;20317;-67
2022/10/10 06:16:35;;;;;;;22.67;6.05;;;;;;;;;;5030340;28;20509;-69
2022/10/10 06:19:02;;;;;;;12.70;6.32;;;;;;;;;;5029072;28;20049;-67
2022/10/10 06:21:28;;;;;;;17.85;5.82;;;;;;;;;;5030211;28;20048;-69
2022/10/10 06:23:55;;;;;;;13.23;5.53;;;;;;;;;;5024681;28;20303;-75
2022/10/10 06:26:21;;;;;;;16.98;5.70;;;;;;;;;;5020652;28;20054;-68
2022/10/10 06:28:49;;;;;;;15.25;6.35;;;;;;;;;;5028369;28;20045;-70
2022/10/10 06:31:15;;;;;;;18.38;6.50;;;;;;;;;;5026172;28;20045;-70
2022/10/10 06:33:44;;;;;;;20.20;6.30;;;;;;;;;;5026698;28;20053;-70
2022/10/10 06:36:12;;;;;;;21.33;6.07;;;;;;;;;;5024654;28;20044;-70
2022/10/10 06:38:39;;;;;;;31.92;6.93;;;;;;;;;;5023575;28;20566;-73
2022/10/10 06:41:07;;;;;;;16.13;5.72;;;;;;;;;;5024780;28;20395;-68
2022/10/10 06:43:33;;;;;;;20.52;5.80;;;;;;;;;;5023030;28;20041;-64
2022/10/10 06:46:00;;;;;;;18.52;6.38;;;;;;;;;;5025019;28;20084;-70
2022/10/10 06:48:26;;;;;;;25.83;6.28;;;;;;;;;;5025729;28;20045;-70
2022/10/10 06:51:01;;;;;;;22.65;5.78;;;;;;;;;;5024652;28;20447;-70
2022/10/10 06:53:27;;;;;;;16.25;5.35;;;;;;;;;;5022155;28;20416;-69
2022/10/10 06:55:54;;;;;;;29.38;6.85;;;;;;;;;;5021700;28;20043;-65
2022/10/10 06:58:22;;;;;;;24.80;6.20;;;;;;;;;;5025008;28;20057;-69
2022/10/10 07:00:52;;;;;;;18.88;5.95;;;;;;;;;;5024206;28;20109;-71
2022/10/10 07:03:18;;;;;;;12.63;5.65;;;;;;;;;;5026602;28;20417;-69
2022/10/10 07:05:49;;;;;;;18.88;5.65;;;;;;;;;;5021709;28;20060;-70
2022/10/10 07:08:15;;;;;;;27.13;6.10;;;;;;;;;;5016759;28;20144;-67
2022/10/10 07:10:41;;;;;;;16.42;5.32;;;;;;;;;;5027108;28;20050;-65
2022/10/10 07:13:06;;;;;;;18.08;6.00;;;;;;;;;;5022593;28;20061;-69
2022/10/10 07:15:33;;;;;;;22.48;5.30;;;;;;;;;;5024426;28;20049;-69
2022/10/10 07:17:59;;;;;;;23.00;5.65;;;;;;;;;;5025798;28;20135;-70
2022/10/10 07:20:26;;;;;;;22.00;5.13;;;;;;;;;;5025554;28;20041;-70
2022/10/10 07:22:52;;;;;;;22.52;5.85;;;;;;;;;;5025002;28;20230;-70
2022/10/10 07:25:19;;;;;;;25.55;5.85;;;;;;;;;;5029036;28;20057;-70
2022/10/10 07:27:46;;;;;;;17.90;6.35;;;;;;;;;;5027961;28;20045;-71
2022/10/10 07:30:12;;;;;;;22.60;6.55;;;;;;;;;;5021095;28;20398;-66
2022/10/10 07:32:38;;;;;;;17.42;5.90;;;;;;;;;;5027636;28;20049;-70
2022/10/10 07:35:04;;;;;;;26.90;6.13;;;;;;;;;;5028823;28;20079;-70
2022/10/10 07:37:30;;;;;;;26.88;6.28;;;;;;;;;;5025317;28;20934;-67
2022/10/10 07:39:56;;;;;;;18.20;5.65;;;;;;;;;;5026556;28;20557;-71
2022/10/10 07:42:22;;;;;;;22.60;5.85;;;;;;;;;;5024015;28;20080;-71
2022/10/10 07:44:48;;;;;;;21.45;6.05;;;;;;;;;;5024256;28;20053;-72
2022/10/10 07:47:13;;;;;;;18.98;6.15;;;;;;;;;;5021574;28;20049;-72
2022/10/10 07:49:39;;;;;;;16.77;6.07;;;;;;;;;;5027019;28;20103;-70
2022/10/10 07:52:05;;;;;;;18.83;6.63;;;;;;;;;;5026655;28;20048;-69
2022/10/10 07:54:32;;;;;;;22.50;6.50;;;;;;;;;;5022195;28;20053;-68
2022/10/10 07:56:57;;;;;;;23.88;5.95;;;;;;;;;;5023683;28;20057;-69
2022/10/10 07:59:23;;;;;;;18.42;6.43;;;;;;;;;;5022761;28;20095;-69
2022/10/10 08:01:50;;;;;;;20.00;6.65;;;;;;;;;;5019356;28;20049;-73
2022/10/10 08:04:16;;;;;;;18.90;5.97;;;;;;;;;;5020304;28;20128;-69
2022/10/10 08:06:42;;;;;;;23.15;5.88;;;;;;;;;;5016028;28;20049;-69
2022/10/10 08:09:08;;;;;;;16.77;6.22;;;;;;;;;;5019721;28;20050;-71
2022/10/10 08:11:34;;;;;;;17.63;6.25;;;;;;;;;;5032233;28;20045;-69
2022/10/10 08:14:00;;;;;;;14.32;5.93;;;;;;;;;;5032051;28;20050;-74
2022/10/10 08:16:26;;;;;;;15.48;6.13;;;;;;;;;;5019880;28;20469;-72
2022/10/10 08:18:52;;;;;;;20.15;6.80;;;;;;;;;;5023594;28;20049;-73
2022/10/10 08:21:18;;;;;;;18.90;6.82;;;;;;;;;;5025839;28;20476;-69
2022/10/10 08:23:45;;;;;;;27.17;6.38;;;;;;;;;;5027557;28;20256;-73
2022/10/10 08:26:13;;;;;;;10.88;5.68;;;;;;;;;;5027705;28;20576;-73
2022/10/10 08:28:39;;;;;;;25.13;6.47;;;;;;;;;;5030030;28;20045;-75
2022/10/10 08:31:07;;;;;;;22.95;5.85;;;;;;;;;;5028177;28;20044;-72
2022/10/10 08:33:33;;;;;;;17.60;6.45;;;;;;;;;;5030402;28;20057;-71
2022/10/10 08:36:11;;;;;;;20.67;6.88;;;;;;;;;;5026720;28;20049;-73
2022/10/10 08:38:37;;;;;;;14.57;6.68;;;;;;;;;;5012543;28;20045;-72
2022/10/10 08:41:10;;;;;;;22.33;6.80;;;;;;;;;;5029568;28;20396;-72
2022/10/10 08:43:44;;;;;;;20.08;6.63;;;;;;;;;;5027290;28;20049;-73
2022/10/10 08:46:20;;;;;;;;;;;;;;;;;;5028996;28;20140;-71
2022/10/10 08:48:48;;;;;;;15.48;5.90;;;;;;;;;;5028487;28;19921;-69
2022/10/10 08:51:25;;;;;;;16.23;5.93;;;;;;;;;;5029517;28;20260;-72
2022/10/10 08:53:53;;;;;;;18.33;5.93;;;;;;;;;;5028576;28;20037;-71
2022/10/10 08:56:26;;;;;;;18.95;5.97;;;;;;;;;;5029878;28;20053;-74
2022/10/10 08:58:58;;;;;;;15.45;6.00;;;;;;;;;;5029726;28;20276;-74
2022/10/10 09:01:32;;;;;;;14.00;6.00;;;;;;;;;;5030208;28;20049;-72
2022/10/10 09:04:00;;;;;;;17.02;5.97;;;;;;;;;;5029530;28;20513;-71
2022/10/10 09:06:42;;;;;;;14.82;5.55;;;;;;;;;;5030196;28;20486;-72
2022/10/10 09:09:53;;;;;;;14.73;5.75;;;;;;;;;;5030766;28;20053;-72
2022/10/10 09:12:28;;;;;;;12.20;5.78;;;;;;;;;;4992423;28;20158;-71
2022/10/10 09:15:09;;;;;;;14.43;6.28;;;;;;;;;;4990140;28;20050;-73
2022/10/10 09:17:42;;;;;;;21.10;6.18;;;;;;;;;;4988484;28;20039;-75
2022/10/10 09:20:29;;;;;;;17.30;6.43;;;;;;;;;;4986710;28;20082;-73
2022/10/10 09:23:32;;;;;;;16.63;6.32;;;;;;;;;;4984835;28;20082;-74
2022/10/10 09:26:06;;;;;;;10.45;5.45;;;;;;;;;;4988256;28;20054;-71
2022/10/10 09:28:37;;;;;;;11.13;5.40;;;;;;;;;;4987958;28;20086;-72
2022/10/10 09:31:09;;;;;;;18.77;5.25;;;;;;;;;;4988178;28;20047;-76
2022/10/10 09:33:48;;;;;;;14.50;4.95;;;;;;;;;;4987875;28;20248;-70
2022/10/10 09:36:22;;;;;;;12.00;4.72;;;;;;;;;;4988744;28;20054;-68
2022/10/10 09:39:14;;;;;;;21.40;6.03;;;;;;;;;;4987290;28;20052;-70
2022/10/10 09:41:51;;;;;;;14.40;4.97;;;;;;;;;;4976888;28;20435;-73
2022/10/10 09:44:19;;;;;;;17.30;5.47;;;;;;;;;;4987207;28;20104;-67
2022/10/10 09:46:45;;;;;;;18.33;5.65;;;;;;;;;;4986741;28;20046;-70
2022/10/10 09:49:16;;;;;;;16.92;5.93;;;;;;;;;;5027755;28;20078;-70
2022/10/10 09:51:43;;;;;;;16.02;5.65;;;;;;;;;;5028273;28;20115;-70
2022/10/10 09:54:10;;;;;;;15.43;5.30;;;;;;;;;;5026555;28;20533;-67
2022/10/10 09:56:56;;;;;;;13.75;4.90;;;;;;;;;;5029800;28;20057;-74
2022/10/10 09:59:43;;;;;;;16.98;5.72;;;;;;;;;;5029093;28;20103;-74
2022/10/10 10:02:21;;;;;;;13.70;4.88;;;;;;;;;;5030452;28;20059;-76
2022/10/10 10:04:48;;;;;;;10.75;4.93;;;;;;;;;;5030870;28;20095;-77
2022/10/10 10:07:26;;;;;;;11.70;4.78;;;;;;;;;;5029305;28;20058;-74
2022/10/10 10:09:55;;;;;;;13.50;5.07;;;;;;;;;;5026495;28;20049;-71
2022/10/10 10:12:24;;;;;;;15.18;5.00;;;;;;;;;;5028304;28;20052;-70
2022/10/10 10:14:51;;;;;;;14.98;5.03;;;;;;;;;;5008331;28;20489;-70
2022/10/10 10:17:21;;;;;;;10.55;4.70;;;;;;;;;;5028592;28;20076;-69
2022/10/10 10:19:47;;;;;;;11.80;4.85;;;;;;;;;;5029646;28;20057;-75
2022/10/10 10:22:32;;;;;;;16.60;5.10;;;;;;;;;;5031680;28;20057;-71
2022/10/10 10:25:19;;;;;;;16.80;5.07;;;;;;;;;;5032909;28;20061;-72
2022/10/10 10:27:44;;;;;;;12.38;4.88;;;;;;;;;;5028531;28;20045;-68
2022/10/10 10:30:24;;;;;;;16.27;5.07;;;;;;;;;;5029096;28;20049;-72
2022/10/10 10:33:01;;;;;;;13.48;5.97;;;;;;;;;;5030702;28;20558;-76
2022/10/10 10:35:38;;;;;;;16.52;5.10;;;;;;;;;;5028276;28;20108;-73
2022/10/10 10:38:38;;;;;;;13.43;5.32;;;;;;;;;;5027053;28;20652;-75
2022/10/10 10:41:10;;;;;;;18.42;5.68;;;;;;;;;;5027674;28;21114;-74
2022/10/10 10:43:52;;;;;;;15.50;5.40;;;;;;;;;;5025218;28;20037;-70
2022/10/10 10:46:24;;;;;;;20.00;5.47;;;;;;;;;;5025366;28;20358;-75
2022/10/10 10:49:01;;;;;;;15.93;4.95;;;;;;;;;;5028147;28;20072;-69
2022/10/10 10:51:42;;;;;;;16.50;5.07;;;;;;;;;;5028849;28;20046;-68
2022/10/10 10:54:38;;;;;;;18.33;5.15;;;;;;;;;;5027091;28;20067;-71
2022/10/10 10:57:22;;;;;;;11.27;5.05;;;;;;;;;;5027459;28;20038;-69
2022/10/10 11:00:08;;;;;;;13.13;5.65;;;;;;;;;;5027482;28;20049;-69
2022/10/10 11:03:11;;;;;;;15.30;5.05;;;;;;;;;;5026345;28;20072;-74
2022/10/10 11:05:42;;;;;;;14.20;4.68;;;;;;;;;;5027592;28;20045;-75
2022/10/10 11:08:23;;;;;;;14.30;5.25;;;;;;;;;;5025054;28;20053;-73
2022/10/10 11:10:51;;;;;;;8.50;4.25;;;;;;;;;;5026371;28;20384;-71
2022/10/10 11:13:25;;;;;;;16.45;6.50;;;;;;;;;;5023394;28;20046;-68
2022/10/10 11:15:57;;;;;;;35.47;20.03;;;;;;;;;;5021779;28;20054;-74
2022/10/10 11:18:49;;;;;;;44.30;27.52;;;;;;;;;;5026760;28;20057;-76
2022/10/10 11:21:24;;;;;;;15.10;5.43;;;;;;;;;;5026027;28;20616;-74
2022/10/10 11:24:43;;;;;;;13.73;5.22;;;;;;;;;;5027519;28;20064;-78
2022/10/10 11:27:20;;;;;;;15.77;5.13;;;;;;;;;;5006604;28;20053;-76
2022/10/10 11:29:59;;;;;;;13.73;6.72;;;;;;;;;;5017916;28;20506;-72
2022/10/10 11:32:49;;;;;;;15.82;5.47;;;;;;;;;;5032411;28;20057;-76
2022/10/10 11:35:25;;;;;;;15.18;5.38;;;;;;;;;;5029183;28;20430;-73
2022/10/10 11:37:57;;;;;;;12.25;4.32;;;;;;;;;;5023656;28;20085;-78
2022/10/10 11:40:32;;;;;;;15.45;4.13;;;;;;;;;;5025548;28;20559;-75
2022/10/10 11:43:11;;;;;;;13.20;4.53;;;;;;;;;;5026831;28;20519;-76
2022/10/10 11:45:44;;;;;;;21.08;5.32;;;;;;;;;;5023001;28;20056;-68
2022/10/10 11:48:19;;;;;;;10.82;3.78;;;;;;;;;;5023528;28;20376;-74
2022/10/10 11:50:52;;;;;;;17.15;4.18;;;;;;;;;;5018132;28;20503;-68
2022/10/10 11:53:33;;;;;;;18.10;4.13;;;;;;;;;;5025252;28;20133;-69
2022/10/10 11:56:04;;;;;;;19.13;4.70;;;;;;;;;;5026958;28;20064;-72
2022/10/10 11:58:33;;;;;;;17.52;4.05;;;;;;;;;;5026044;28;20057;-72
2022/10/10 12:01:22;;;;;;;15.23;4.25;;;;;;;;;;5027029;28;20049;-72
2022/10/10 12:03:51;;;;;;;11.02;3.67;;;;;;;;;;5025273;28;20141;-70
2022/10/10 12:06:22;;;;;;;17.25;3.75;;;;;;;;;;5027050;28;20072;-69
2022/10/10 12:09:03;;;;;;;13.88;3.97;;;;;;;;;;5026830;28;20469;-73
2022/10/10 12:11:55;;;;;;;15.52;4.20;;;;;;;;;;5027032;28;20046;-74
2022/10/10 12:14:23;;;;;;;12.50;3.70;;;;;;;;;;5024860;28;20136;-77
2022/10/10 12:16:50;;;;;;;18.67;4.15;;;;;;;;;;5027076;28;20045;-73
2022/10/10 12:19:22;;;;;;;15.98;3.88;;;;;;;;;;5025718;28;20057;-65
2022/10/10 12:22:07;;;;;;;12.60;3.90;;;;;;;;;;5026304;28;20045;-68
2022/10/10 12:25:13;;;;;;;13.60;3.53;;;;;;;;;;5026297;28;20398;-69
2022/10/10 12:27:46;;;;;;;12.68;3.92;;;;;;;;;;5020939;28;20060;-73
2022/10/10 12:30:19;;;;;;;8.75;3.25;;;;;;;;;;5023661;28;20042;-70
2022/10/10 12:32:46;;;;;;;11.05;3.40;;;;;;;;;;5022413;28;20045;-68
2022/10/10 12:35:35;;;;;;;14.02;4.00;;;;;;;;;;5021056;28;20057;-69
2022/10/10 12:38:04;;;;;;;12.77;2.90;;;;;;;;;;5024790;28;20045;-75
2022/10/10 12:40:31;;;;;;;11.55;3.50;;;;;;;;;;5027445;28;20129;-71
2022/10/10 12:43:23;;;;;;;11.25;4.25;;;;;;;;;;5026614;28;20050;-74
2022/10/10 12:45:52;;;;;;;17.05;7.25;;;;;;;;;;5017476;28;20110;-75
2022/10/10 12:48:20;;;;;;;12.80;6.18;;;;;;;;;;5025674;28;20491;-73
2022/10/10 12:50:58;;;;;;;8.95;3.72;;;;;;;;;;5024282;28;20037;-75
2022/10/10 12:53:27;;;;;;;8.60;4.15;;;;;;;;;;5024069;28;20037;-74
2022/10/10 12:55:55;;;;;;;9.15;3.75;;;;;;;;;;5029309;28;20046;-70
2022/10/10 12:58:28;;;;;;;11.25;2.92;;;;;;;;;;5031891;28;20052;-73
2022/10/10 13:00:56;;;;;;;8.48;2.72;;;;;;;;;;5031590;28;20060;-77
2022/10/10 13:03:31;;;;;;;8.23;3.00;;;;;;;;;;5032864;28;20045;-75
2022/10/10 13:06:09;;;;;;;11.45;3.33;;;;;;;;;;5034199;28;20108;-72
2022/10/10 13:08:40;;;;;;;9.30;2.78;;;;;;;;;;5032445;28;20124;-71
2022/10/10 13:11:12;;;;;;;13.90;2.90;;;;;;;;;;5033575;28;20278;-76
2022/10/10 13:13:40;;;;;;;9.48;3.22;;;;;;;;;;5030530;28;20081;-74
2022/10/10 13:16:13;;;;;;;11.82;3.40;;;;;;;;;;5024795;28;20052;-74
2022/10/10 13:18:43;;;;;;;7.15;2.78;;;;;;;;;;5029762;28;20057;-73
2022/10/10 13:21:12;;;;;;;12.20;3.45;;;;;;;;;;5029718;28;20057;-70
2022/10/10 13:23:48;;;;;;;13.10;3.38;;;;;;;;;;5026367;28;20081;-70
2022/10/10 13:26:26;;;;;;;12.50;3.30;;;;;;;;;;5029359;28;20102;-75
2022/10/10 13:29:02;;;;;;;12.00;3.75;;;;;;;;;;5028825;28;20045;-75
2022/10/10 13:31:30;;;;;;;13.45;3.35;;;;;;;;;;5027337;28;20148;-69
2022/10/10 13:34:02;;;;;;;15.45;4.10;;;;;;;;;;5028291;28;20037;-78
2022/10/10 13:36:30;;;;;;;14.45;3.30;;;;;;;;;;5028845;28;20297;-73
2022/10/10 13:38:56;;;;;;;12.23;3.72;;;;;;;;;;5024847;28;20045;-66
2022/10/10 13:41:25;;;;;;;16.42;3.58;;;;;;;;;;5029469;28;20095;-77
2022/10/10 13:43:51;;;;;;;14.55;3.55;;;;;;;;;;5024770;28;20116;-75
2022/10/10 13:46:19;;;;;;;17.80;3.97;;;;;;;;;;5029399;28;20052;-70
2022/10/10 13:48:45;;;;;;;10.60;3.55;;;;;;;;;;5029375;28;20075;-73
2022/10/10 13:51:13;;;;;;;16.65;5.55;;;;;;;;;;5030130;28;20105;-76
2022/10/10 13:53:50;;;;;;;10.25;4.03;;;;;;;;;;5028755;28;20041;-73
2022/10/10 13:56:19;;;;;;;14.27;3.90;;;;;;;;;;5030854;28;20419;-71
2022/10/10 13:58:49;;;;;;;11.10;3.65;;;;;;;;;;5028497;28;20050;-74
2022/10/10 14:01:54;;;;;;;12.75;3.85;;;;;;;;;;5028057;28;20045;-75
2022/10/10 14:04:30;;;;;;;13.60;4.43;;;;;;;;;;5021000;28;20064;-71
2022/10/10 14:07:23;;;;;;;13.48;4.30;;;;;;;;;;5026494;28;20117;-69
2022/10/10 14:09:55;;;;;;;9.00;3.75;;;;;;;;;;5025403;28;20056;-71
2022/10/10 14:12:37;;;;;;;11.85;4.28;;;;;;;;;;5028722;28;20443;-73
2022/10/10 14:15:04;;;;;;;16.88;3.72;;;;;;;;;;5032550;28;20069;-73
2022/10/10 14:17:30;;;;;;;8.77;4.07;;;;;;;;;;5025957;28;20034;-68
2022/10/10 14:19:56;;;;;;;12.85;4.30;;;;;;;;;;5027215;28;20051;-74
2022/10/10 14:22:22;;;;;;;8.60;4.15;;;;;;;;;;5027153;28;20132;-68
2022/10/10 14:24:49;;;;;;;13.20;4.60;;;;;;;;;;5028486;28;20128;-71
2022/10/10 14:27:25;;;;;;;8.05;3.78;;;;;;;;;;5033653;28;20059;-71
2022/10/10 14:29:53;;;;;;;12.27;4.93;;;;;;;;;;5032413;28;20123;-70
2022/10/10 14:32:20;;;;;;;16.27;4.43;;;;;;;;;;5030307;28;20052;-73
2022/10/10 14:34:46;;;;;;;14.20;4.03;;;;;;;;;;5033511;28;20092;-75
2022/10/10 14:37:18;;;;;;;14.95;4.45;;;;;;;;;;5024728;28;20250;-74
2022/10/10 14:39:44;;;;;;;9.70;4.50;;;;;;;;;;5031489;28;20058;-75
2022/10/10 14:42:12;;;;;;;9.48;4.25;;;;;;;;;;5032234;28;20101;-73
2022/10/10 14:44:38;;;;;;;8.77;4.15;;;;;;;;;;5029400;28;20388;-72
2022/10/10 14:47:03;;;;;;;17.70;4.30;;;;;;;;;;5030867;28;20056;-74
2022/10/10 14:49:30;;;;;;;12.35;4.80;;;;;;;;;;5030146;28;20058;-74
2022/10/10 14:51:55;;;;;;;10.20;4.45;;;;;;;;;;5029080;28;20049;-74
2022/10/10 14:54:21;;;;;;;12.98;4.53;;;;;;;;;;5022018;28;20081;-68
2022/10/10 14:56:49;;;;;;;11.30;4.97;;;;;;;;;;5021950;28;20048;-69